Time;durP1;ratioP1;P1;durP2;ratioP2;P2;SDS_P1;SDS_P2;PMS_P1;PMS_P2;Temp;Humidity;BMP_temperature;BMP_pressure;BME280_temperature;BME280_humidity;BME280_pressure;Samples;Min_cycle;Max_cycle;Signal;HPM_P1;HPM_P2
2022/01/09 00:00:27;;;;;;;;;;;;;;;6.33;77.97;98699.09;5102621;28;19924;-71
2022/01/09 00:02:52;;;;;;;;;;;;;;;6.33;77.86;98696.34;5106220;28;19916;-71
2022/01/09 00:05:18;;;;;;;;;;;;;;;6.34;78.77;98713.72;5091250;28;19928;-71
2022/01/09 00:07:43;;;;;;;;;;;;;;;6.35;78.43;98729.13;5107182;28;19920;-71
2022/01/09 00:10:09;;;;;;;;;;;;;;;6.32;78.90;98740.69;5089206;28;20021;-71
2022/01/09 00:12:34;;;;;;;;;;;;;;;6.31;78.73;98747.31;5093687;28;20332;-71
2022/01/09 00:15:00;;;;;;;;;;;;;;;6.29;79.39;98753.13;5086468;28;19916;-71
2022/01/09 00:17:25;;;;;;;;;;;;;;;6.25;79.13;98782.31;5096135;28;19954;-71
2022/01/09 00:19:50;;;;;;;;;;;;;;;6.22;79.43;98799.38;5096234;28;19920;-71
2022/01/09 00:22:18;;;;;;;;;;;;;;;6.20;79.32;98798.00;5094850;28;19917;-71
2022/01/09 00:24:43;;;;;;;;;;;;;;;6.21;78.33;98802.41;5097283;28;19923;-71
2022/01/09 00:27:08;;;;;;;;;;;;;;;6.21;78.48;98829.94;5085177;28;20257;-72
2022/01/09 00:29:34;;;;;;;;;;;;;;;6.20;78.39;98839.31;5096295;28;19960;-72
2022/01/09 00:31:59;;;;;;;;;;;;;;;6.19;78.68;98845.94;5092988;28;19920;-71
2022/01/09 00:34:24;;;;;;;;;;;;;;;6.14;78.54;98852.28;5097747;28;19916;-72
2022/01/09 00:36:49;;;;;;;;;;;;;;;6.11;79.15;98853.63;5112522;28;19923;-72
2022/01/09 00:39:14;;;;;;;;;;;;;;;6.11;78.53;98861.91;5091316;28;19924;-71
2022/01/09 00:41:40;;;;;;;;;;;;;;;6.10;78.94;98867.69;5095152;28;19920;-71
2022/01/09 00:44:05;;;;;;;;;;;;;;;6.07;78.92;98885.56;5105370;28;19916;-72
2022/01/09 00:46:33;;;;;;;;;;;;;;;6.05;78.39;98886.94;5094374;28;19955;-72
2022/01/09 00:48:58;;;;;;;;;;;;;;;6.03;79.31;98878.97;5097654;28;19931;-72
2022/01/09 00:51:23;;;;;;;;;;;;;;;6.04;78.48;98904.56;5091310;28;19920;-71
2022/01/09 00:53:48;;;;;;;;;;;;;;;6.01;78.38;98897.69;5096401;28;20367;-72
2022/01/09 00:56:14;;;;;;;;;;;;;;;6.01;78.39;98900.44;5092952;28;20034;-72
2022/01/09 00:58:39;;;;;;;;;;;;;;;5.95;78.55;98907.03;5104983;28;20313;-72
2022/01/09 01:01:04;;;;;;;;;;;;;;;5.95;78.12;98909.78;5081662;28;19948;-67
2022/01/09 01:03:29;;;;;;;;;;;;;;;5.96;78.38;98924.38;5086720;28;20374;-71
2022/01/09 01:05:54;;;;;;;;;;;;;;;5.98;77.77;98931.28;5083069;28;19921;-75
2022/01/09 01:08:19;;;;;;;;;;;;;;;6.00;77.66;98936.50;5093854;28;19919;-70
2022/01/09 01:10:45;;;;;;;;;;;;;;;6.02;77.43;98940.66;5087469;28;19923;-70
2022/01/09 01:13:10;;;;;;;;;;;;;;;6.04;78.05;98946.69;5077009;28;20370;-70
2022/01/09 01:15:35;;;;;;;;;;;;;;;6.07;77.87;98951.69;5099755;28;19915;-69
2022/01/09 01:18:00;;;;;;;;;;;;;;;6.08;78.04;98963.53;5086233;28;19923;-69
2022/01/09 01:20:27;;;;;;;;;;;;;;;6.06;78.05;98961.03;5091305;28;19965;-69
2022/01/09 01:22:53;;;;;;;;;;;;;;;6.03;77.65;98967.09;5090031;28;19920;-70
2022/01/09 01:25:18;;;;;;;;;;;;;;;6.02;77.79;98981.97;5105998;28;19923;-70
2022/01/09 01:27:44;;;;;;;;;;;;;;;6.00;77.89;98983.31;5080039;28;19920;-70
2022/01/09 01:30:09;;;;;;;;;;;;;;;5.99;77.29;98982.50;5098575;28;19920;-70
2022/01/09 01:32:34;;;;;;;;;;;;;;;6.00;77.15;98989.66;5092322;28;19920;-70
2022/01/09 01:35:00;;;;;;;;;;;;;;;6.00;77.40;98997.09;5094110;28;20371;-70
2022/01/09 01:37:25;;;;;;;;;;;;;;;6.02;77.70;99001.25;5103198;28;20368;-70
2022/01/09 01:39:50;;;;;;;;;;;;;;;6.03;77.21;99010.31;5083769;28;19927;-70
2022/01/09 01:42:15;;;;;;;;;;;;;;;6.04;77.56;99020.25;5094394;28;19920;-70
2022/01/09 01:44:48;;;;;;;;;;;;;;;6.04;77.12;99020.25;5098977;28;19924;-69
2022/01/09 01:47:14;;;;;;;;;;;;;;;6.06;77.28;99035.41;5091554;28;19920;-70
2022/01/09 01:49:40;;;;;;;;;;;;;;;6.08;77.36;99035.97;5085637;28;19963;-70
2022/01/09 01:52:07;;;;;;;;;;;;;;;6.09;77.25;99043.16;5085972;28;19973;-70
2022/01/09 01:54:33;;;;;;;;;;;;;;;6.10;77.44;99047.56;5098635;28;19990;-69
2022/01/09 01:56:58;;;;;;;;;;;;;;;6.10;77.27;99057.75;5100431;28;20014;-69
2022/01/09 01:59:23;;;;;;;;;;;;;;;6.11;77.36;99062.16;5091861;28;19963;-70
2022/01/09 02:01:49;;;;;;;;;;;;;;;6.09;77.50;99070.69;5089693;28;20334;-70
2022/01/09 02:04:14;;;;;;;;;;;;;;;6.09;77.72;99078.94;5101636;28;19924;-70
2022/01/09 02:06:40;;;;;;;;;;;;;;;6.09;77.96;99091.88;5100611;28;19961;-70
2022/01/09 02:09:05;;;;;;;;;;;;;;;6.11;77.88;99096.03;5109385;28;19919;-70
2022/01/09 02:11:31;;;;;;;;;;;;;;;6.12;77.85;99107.88;5095861;28;19936;-69
2022/01/09 02:13:56;;;;;;;;;;;;;;;6.12;77.81;99107.88;5110693;28;19958;-70
2022/01/09 02:16:22;;;;;;;;;;;;;;;6.18;77.28;99111.50;5098826;28;19927;-70
2022/01/09 02:18:48;;;;;;;;;;;;;;;6.19;77.79;99113.16;5093376;28;19920;-70
2022/01/09 02:21:14;;;;;;;;;;;;;;;6.20;77.58;99120.31;5088764;28;20011;-69
2022/01/09 02:23:41;;;;;;;;;;;;;;;6.23;77.72;99126.13;5112836;28;20367;-70
2022/01/09 02:26:06;;;;;;;;;;;;;;;6.26;77.45;99130.28;5107549;28;20428;-70
2022/01/09 02:28:31;;;;;;;;;;;;;;;6.26;77.36;99133.84;5094296;28;20015;-70
2022/01/09 02:30:57;;;;;;;;;;;;;;;6.29;77.12;99146.28;5095569;28;19924;-70
2022/01/09 02:33:22;;;;;;;;;;;;;;;6.31;76.89;99141.31;5109143;28;19931;-70
2022/01/09 02:35:47;;;;;;;;;;;;;;;6.32;76.79;99140.22;5112706;28;19927;-70
2022/01/09 02:38:13;;;;;;;;;;;;;;;6.34;77.02;99155.41;5084804;28;20019;-70
2022/01/09 02:40:38;;;;;;;;;;;;;;;6.36;77.22;99155.13;5082749;28;20388;-69
2022/01/09 02:43:03;;;;;;;;;;;;;;;6.38;76.57;99161.19;5083537;28;19921;-70
2022/01/09 02:45:29;;;;;;;;;;;;;;;6.34;76.98;99165.59;5109285;28;19975;-69
2022/01/09 02:47:56;;;;;;;;;;;;;;;6.32;77.02;99179.63;5102417;28;20267;-70
2022/01/09 02:52:53;;;;;;;;;;;;;;;6.30;77.12;99181.00;5098046;28;19970;-70
2022/01/09 02:55:19;;;;;;;;;;;;;;;6.31;76.81;99190.91;5093382;28;19950;-69
2022/01/09 02:57:45;;;;;;;;;;;;;;;6.31;76.49;99207.44;5089528;28;20379;-70
2022/01/09 03:00:12;;;;;;;;;;;;;;;6.27;76.92;99212.66;5107458;28;19926;-69
2022/01/09 03:02:37;;;;;;;;;;;;;;;6.27;77.09;99203.56;5101243;28;20014;-69
2022/01/09 03:05:03;;;;;;;;;;;;;;;6.26;76.55;99213.75;5098038;28;20011;-70
2022/01/09 03:07:28;;;;;;;;;;;;;;;6.27;76.81;99222.84;5108468;28;19921;-69
2022/01/09 03:09:53;;;;;;;;;;;;;;;6.24;76.85;99226.94;5097631;28;20011;-70
2022/01/09 03:12:19;;;;;;;;;;;;;;;6.24;76.91;99232.47;5103239;28;19916;-69
2022/01/09 03:14:46;;;;;;;;;;;;;;;6.29;76.79;99237.22;5093758;28;20333;-70
2022/01/09 03:17:11;;;;;;;;;;;;;;;6.30;76.56;99247.13;5112468;28;20274;-69
2022/01/09 03:19:36;;;;;;;;;;;;;;;6.31;76.33;99243.28;5097831;28;19916;-70
2022/01/09 03:22:01;;;;;;;;;;;;;;;6.32;76.52;99254.00;5092785;28;19923;-69
2022/01/09 03:24:26;;;;;;;;;;;;;;;6.33;75.48;99263.97;5094871;28;19926;-69
2022/01/09 03:26:51;;;;;;;;;;;;;;;6.32;76.52;99273.31;5099603;28;20363;-70
2022/01/09 03:29:17;;;;;;;;;;;;;;;6.33;75.98;99272.22;5103593;28;19920;-70
2022/01/09 03:31:42;;;;;;;;;;;;;;;6.34;75.42;99282.16;5103472;28;20443;-70
2022/01/09 03:34:07;;;;;;;;;;;;;;;6.31;75.05;99290.13;5091367;28;19935;-69
2022/01/09 03:36:32;;;;;;;;;;;;;;;6.32;75.25;99291.75;5094008;28;20358;-69
2022/01/09 03:38:57;;;;;;;;;;;;;;;6.34;75.44;99295.94;5094679;28;20002;-69
2022/01/09 03:41:23;;;;;;;;;;;;;;;6.39;74.87;99295.13;5094481;28;19926;-69
2022/01/09 03:43:48;;;;;;;;;;;;;;;6.34;75.26;99308.88;5084559;28;19949;-69
2022/01/09 03:46:13;;;;;;;;;;;;;;;6.31;74.88;99321.25;5089659;28;20016;-69
2022/01/09 03:48:38;;;;;;;;;;;;;;;6.30;75.42;99324.28;5095675;28;19920;-70
2022/01/09 03:51:03;;;;;;;;;;;;;;;6.32;74.79;99324.84;5094292;28;19974;-69
2022/01/09 03:53:30;;;;;;;;;;;;;;;6.32;74.70;99338.59;5092810;28;19959;-69
2022/01/09 03:55:56;;;;;;;;;;;;;;;6.30;74.65;99329.78;5086495;28;19928;-69
2022/01/09 03:58:21;;;;;;;;;;;;;;;6.23;74.64;99341.03;5089625;28;19966;-69
2022/01/09 04:00:46;;;;;;;;;;;;;;;6.21;74.78;99347.88;5093043;28;19931;-70
2022/01/09 04:03:11;;;;;;;;;;;;;;;6.22;74.79;99346.81;5090720;28;19972;-69
2022/01/09 04:05:37;;;;;;;;;;;;;;;6.25;74.84;99360.03;5098428;28;19920;-70
2022/01/09 04:08:02;;;;;;;;;;;;;;;6.20;74.16;99363.56;5096758;28;19920;-70
2022/01/09 04:10:29;;;;;;;;;;;;;;;6.14;74.40;99370.97;5092808;28;19982;-69
2022/01/09 04:12:59;;;;;;;;;;;;;;;6.14;74.97;99370.97;5094273;28;19921;-70
2022/01/09 04:15:25;;;;;;;;;;;;;;;6.15;74.44;99386.41;5096647;28;19973;-69
2022/01/09 04:17:54;;;;;;;;;;;;;;;6.18;74.54;99385.06;5086102;28;19923;-69
2022/01/09 04:20:21;;;;;;;;;;;;;;;6.20;74.54;99393.06;5089291;28;19982;-69
2022/01/09 04:22:47;;;;;;;;;;;;;;;6.20;74.16;99401.31;5090753;28;19919;-69
2022/01/09 04:25:12;;;;;;;;;;;;;;;6.18;74.04;99400.75;5087692;28;20373;-69
2022/01/09 04:27:38;;;;;;;;;;;;;;;6.19;73.90;99408.75;5085863;28;19924;-69
2022/01/09 04:30:04;;;;;;;;;;;;;;;6.20;73.90;99415.91;5078506;28;19916;-70
2022/01/09 04:32:29;;;;;;;;;;;;;;;6.23;74.23;99406.31;5090856;28;20010;-69
2022/01/09 04:34:54;;;;;;;;;;;;;;;6.20;73.96;99421.44;5090874;28;19916;-69
2022/01/09 04:37:20;;;;;;;;;;;;;;;6.22;74.23;99429.47;5079135;28;19927;-69
2022/01/09 04:39:48;;;;;;;;;;;;;;;6.22;74.44;99440.47;5087047;28;19920;-69
2022/01/09 04:42:13;;;;;;;;;;;;;;;6.22;73.58;99443.22;5073280;28;19920;-69
2022/01/09 04:44:38;;;;;;;;;;;;;;;6.21;73.38;99450.66;5091640;28;20481;-69
2022/01/09 04:47:08;;;;;;;;;;;;;;;6.18;73.88;99451.19;5088463;28;20341;-69
2022/01/09 04:49:40;;;;;;;;;;;;;;;6.20;74.37;99456.41;5095336;28;19962;-69
2022/01/09 04:52:07;;;;;;;;;;;;;;;6.23;74.54;99466.94;5091570;28;19926;-69
2022/01/09 04:54:33;;;;;;;;;;;;;;;6.26;74.05;99467.25;5090821;28;19931;-69
2022/01/09 04:57:00;;;;;;;;;;;;;;;6.26;73.03;99483.78;5093775;28;19924;-69
2022/01/09 04:59:26;;;;;;;;;;;;;;;6.25;73.59;99482.13;5093375;28;19923;-69
2022/01/09 05:01:51;;;;;;;;;;;;;;;6.25;73.60;99492.28;5084548;28;20003;-69
2022/01/09 05:04:16;;;;;;;;;;;;;;;6.25;73.71;99495.91;5088355;28;19931;-70
2022/01/09 05:06:41;;;;;;;;;;;;;;;6.26;73.49;99508.59;5086437;28;19924;-70
2022/01/09 05:09:06;;;;;;;;;;;;;;;6.29;73.07;99504.50;5086567;28;19928;-69
2022/01/09 05:11:31;;;;;;;;;;;;;;;6.29;73.96;99513.59;5094713;28;19927;-69
2022/01/09 05:13:56;;;;;;;;;;;;;;;6.30;73.62;99522.69;5096774;28;19916;-69
2022/01/09 05:16:22;;;;;;;;;;;;;;;6.31;73.19;99524.34;5083411;28;20016;-69
2022/01/09 05:18:58;;;;;;;;;;;;;;;6.30;73.64;99537.28;5091709;28;19928;-69
2022/01/09 05:21:23;;;;;;;;;;;;;;;6.26;73.21;99549.09;5094120;28;20272;-70
2022/01/09 05:23:49;;;;;;;;;;;;;;;6.26;73.54;99558.19;5100933;28;19942;-70
2022/01/09 05:26:14;;;;;;;;;;;;;;;6.25;73.58;99561.16;5096128;28;20286;-69
2022/01/09 05:28:39;;;;;;;;;;;;;;;6.23;73.44;99558.69;5081866;28;20379;-70
2022/01/09 05:31:04;;;;;;;;;;;;;;;6.25;73.89;99566.69;5079594;28;19928;-70
2022/01/09 05:33:29;;;;;;;;;;;;;;;6.25;73.69;99574.94;5093036;28;20448;-70
2022/01/09 05:35:54;;;;;;;;;;;;;;;6.25;73.79;99580.47;5089883;28;20019;-70
2022/01/09 05:38:20;;;;;;;;;;;;;;;6.24;73.92;99587.06;5085284;28;20393;-69
2022/01/09 05:40:45;;;;;;;;;;;;;;;6.20;73.62;99583.16;5084817;28;19956;-70
2022/01/09 05:43:11;;;;;;;;;;;;;;;6.21;73.75;99587.56;5087500;28;19920;-69
2022/01/09 05:45:37;;;;;;;;;;;;;;;6.23;73.83;99590.91;5095125;28;19972;-69
2022/01/09 05:48:02;;;;;;;;;;;;;;;6.25;73.94;99585.97;5093468;28;19931;-69
2022/01/09 05:50:27;;;;;;;;;;;;;;;6.25;73.97;99589.59;5091308;28;19932;-69
2022/01/09 05:52:52;;;;;;;;;;;;;;;6.27;73.84;99589.31;5096541;28;20010;-70
2022/01/09 05:55:17;;;;;;;;;;;;;;;6.30;74.26;99597.09;5093763;28;19920;-69
2022/01/09 05:57:43;;;;;;;;;;;;;;;6.33;74.57;99607.59;5096618;28;19920;-69
2022/01/09 06:00:08;;;;;;;;;;;;;;;6.33;74.12;99602.91;5088684;28;20386;-69
2022/01/09 06:02:33;;;;;;;;;;;;;;;6.33;74.29;99605.69;5095750;28;19927;-70
2022/01/09 06:04:58;;;;;;;;;;;;;;;6.35;74.15;99619.19;5087594;28;19920;-69
2022/01/09 06:07:23;;;;;;;;;;;;;;;6.35;73.97;99606.25;5087814;28;19927;-69
2022/01/09 06:09:49;;;;;;;;;;;;;;;6.37;73.31;99625.28;5084213;28;19926;-70
2022/01/09 06:12:14;;;;;;;;;;;;;;;6.37;73.83;99619.78;5092971;28;19920;-69
2022/01/09 06:14:39;;;;;;;;;;;;;;;6.36;73.89;99615.34;5092187;28;20011;-69
2022/01/09 06:17:04;;;;;;;;;;;;;;;6.35;73.95;99630.22;5091297;28;19928;-69
2022/01/09 06:19:29;;;;;;;;;;;;;;;6.34;73.75;99634.06;5088981;28;19920;-69
2022/01/09 06:21:55;;;;;;;;;;;;;;;6.33;73.58;99632.41;5094690;28;19962;-70
2022/01/09 06:24:20;;;;;;;;;;;;;;;6.33;73.69;99635.16;5089300;28;19920;-70
2022/01/09 06:26:45;;;;;;;;;;;;;;;6.33;73.18;99638.75;5089768;28;19920;-70
2022/01/09 06:29:12;;;;;;;;;;;;;;;6.33;73.22;99637.91;5085787;28;19948;-70
2022/01/09 06:31:37;;;;;;;;;;;;;;;6.31;73.74;99645.59;5093231;28;19920;-69
2022/01/09 06:34:02;;;;;;;;;;;;;;;6.31;73.52;99648.34;5099668;28;20276;-69
2022/01/09 06:36:27;;;;;;;;;;;;;;;6.30;73.76;99644.75;5088077;28;20014;-69
2022/01/09 06:38:53;;;;;;;;;;;;;;;6.29;73.51;99648.63;5092969;28;19920;-69
2022/01/09 06:41:18;;;;;;;;;;;;;;;6.29;73.51;99651.38;5093532;28;19924;-69
2022/01/09 06:43:44;;;;;;;;;;;;;;;6.30;72.77;99661.28;5100088;28;20386;-69
2022/01/09 06:46:09;;;;;;;;;;;;;;;6.29;73.36;99667.06;5088100;28;19974;-70
2022/01/09 06:48:34;;;;;;;;;;;;;;;6.29;73.75;99664.31;5097943;28;20332;-69
2022/01/09 06:50:59;;;;;;;;;;;;;;;6.29;73.08;99661.56;5090561;28;20363;-69
2022/01/09 06:53:25;;;;;;;;;;;;;;;6.22;72.76;99669.16;5093532;28;19920;-69
2022/01/09 06:55:50;;;;;;;;;;;;;;;6.21;73.58;99675.75;5095015;28;20025;-69
2022/01/09 06:58:18;;;;;;;;;;;;;;;6.18;73.27;99676.28;5092937;28;19964;-69
2022/01/09 07:00:43;;;;;;;;;;;;;;;6.18;72.74;99688.13;5094694;28;19920;-70
2022/01/09 07:03:09;;;;;;;;;;;;;;;6.13;73.57;99694.41;5092033;28;19920;-70
2022/01/09 07:05:34;;;;;;;;;;;;;;;6.15;73.42;99696.88;5102139;28;19920;-69
2022/01/09 07:07:59;;;;;;;;;;;;;;;6.18;73.25;99701.06;5090825;28;19955;-70
2022/01/09 07:10:24;;;;;;;;;;;;;;;6.19;73.17;99703.56;5089237;28;20364;-69
2022/01/09 07:12:49;;;;;;;;;;;;;;;6.21;73.39;99715.19;5091081;28;19927;-70
2022/01/09 07:15:15;;;;;;;;;;;;;;;6.22;73.32;99711.31;5092199;28;19924;-70
2022/01/09 07:17:40;;;;;;;;;;;;;;;6.24;73.44;99717.41;5102955;28;19968;-69
2022/01/09 07:20:05;;;;;;;;;;;;;;;6.27;73.21;99718.84;5093260;28;20010;-70
2022/01/09 07:22:30;;;;;;;;;;;;;;;6.26;73.64;99722.69;5096357;28;19920;-69
2022/01/09 07:24:56;;;;;;;;;;;;;;;6.25;73.30;99732.88;5085833;28;19920;-69
2022/01/09 07:27:21;;;;;;;;;;;;;;;6.24;73.09;99735.88;5092192;28;19973;-69
2022/01/09 07:29:46;;;;;;;;;;;;;;;6.22;73.45;99735.28;5085194;28;19920;-70
2022/01/09 07:32:11;;;;;;;;;;;;;;;6.24;73.28;99738.63;5094421;28;19927;-70
2022/01/09 07:34:36;;;;;;;;;;;;;;;6.23;72.59;99745.22;5089643;28;19920;-69
2022/01/09 07:37:02;;;;;;;;;;;;;;;6.19;73.17;99752.31;5101313;28;19965;-69
2022/01/09 07:39:28;;;;;;;;;;;;;;;6.16;73.42;99753.66;5087979;28;19920;-69
2022/01/09 07:41:53;;;;;;;;;;;;;;;6.18;73.38;99756.19;5086271;28;19928;-70
2022/01/09 07:44:18;;;;;;;;;;;;;;;6.19;73.15;99758.66;5080960;28;19932;-69
2022/01/09 07:46:44;;;;;;;;;;;;;;;6.22;73.28;99751.81;5085630;28;19969;-70
2022/01/09 07:49:09;;;;;;;;;;;;;;;6.23;73.19;99768.09;5091288;28;19920;-69
2022/01/09 07:51:34;;;;;;;;;;;;;;;6.22;73.11;99765.59;5093170;28;20326;-70
2022/01/09 07:53:59;;;;;;;;;;;;;;;6.21;73.47;99783.19;5083881;28;19926;-69
2022/01/09 07:56:24;;;;;;;;;;;;;;;6.22;73.13;99779.38;5081173;28;19944;-70
2022/01/09 07:58:50;;;;;;;;;;;;;;;6.20;73.37;99789.81;5082444;28;19948;-69
2022/01/09 08:01:15;;;;;;;;;;;;;;;6.19;72.63;99791.72;5083124;28;19920;-69
2022/01/09 08:03:40;;;;;;;;;;;;;;;6.17;72.98;99787.53;5090893;28;19982;-69
2022/01/09 08:06:05;;;;;;;;;;;;;;;6.14;72.60;99806.25;5088233;28;19978;-69
2022/01/09 08:08:30;;;;;;;;;;;;;;;6.15;72.91;99796.91;5082307;28;19920;-69
2022/01/09 08:10:56;;;;;;;;;;;;;;;6.19;73.46;99796.41;5080188;28;19924;-69
2022/01/09 08:13:21;;;;;;;;;;;;;;;6.18;72.91;99800.25;5088192;28;20276;-69
2022/01/09 08:15:46;;;;;;;;;;;;;;;6.16;72.47;99803.25;5081760;28;19915;-69
2022/01/09 08:18:12;;;;;;;;;;;;;;;6.17;72.56;99815.09;5092191;28;19920;-69
2022/01/09 08:20:37;;;;;;;;;;;;;;;6.13;71.79;99823.88;5092316;28;19973;-68
2022/01/09 08:23:02;;;;;;;;;;;;;;;6.09;72.35;99838.38;5088356;28;19986;-69
2022/01/09 08:25:27;;;;;;;;;;;;;;;6.08;72.61;99833.97;5083732;28;20324;-67
2022/01/09 08:27:53;;;;;;;;;;;;;;;6.10;72.77;99846.41;5088312;28;20386;-67
2022/01/09 08:30:19;;;;;;;;;;;;;;;6.12;73.09;99840.66;5080421;28;19919;-67
2022/01/09 08:32:45;;;;;;;;;;;;;;;6.15;73.25;99837.41;5071019;28;19951;-67
2022/01/09 08:35:10;;;;;;;;;;;;;;;6.15;72.85;99841.00;5073382;28;20431;-66
2022/01/09 08:37:36;;;;;;;;;;;;;;;6.16;73.02;99847.31;5089011;28;19927;-66
2022/01/09 08:40:02;;;;;;;;;;;;;;;6.18;73.10;99844.34;5092026;28;19946;-66
2022/01/09 08:42:27;;;;;;;;;;;;;;;6.18;73.00;99847.09;5097837;28;20005;-66
2022/01/09 08:44:52;;;;;;;;;;;;;;;6.19;73.29;99855.09;5090599;28;19927;-68
2022/01/09 08:47:17;;;;;;;;;;;;;;;6.22;73.19;99857.38;5088195;28;19976;-67
2022/01/09 08:49:43;;;;;;;;;;;;;;;6.23;72.61;99848.00;5078409;28;19923;-67
2022/01/09 08:52:08;;;;;;;;;;;;;;;6.24;72.90;99859.88;5075948;28;19935;-68
2022/01/09 08:54:37;;;;;;;;;;;;;;;6.25;73.42;99856.88;5085173;28;20299;-70
2022/01/09 08:57:02;;;;;;;;;;;;;;;6.30;73.53;99869.91;5079046;28;19924;-69
2022/01/09 08:59:27;;;;;;;;;;;;;;;6.33;73.14;99880.44;5089204;28;20340;-67
2022/01/09 09:01:53;;;;;;;;;;;;;;;6.34;73.53;99876.59;5095928;28;19920;-67
2022/01/09 09:04:18;;;;;;;;;;;;;;;6.35;72.85;99881.00;5080447;28;19982;-66
2022/01/09 09:06:43;;;;;;;;;;;;;;;6.35;72.58;99886.53;5089409;28;19920;-66
2022/01/09 09:09:09;;;;;;;;;;;;;;;6.36;73.38;99885.44;5085222;28;19921;-65
2022/01/09 09:11:34;;;;;;;;;;;;;;;6.37;73.02;99895.38;5087089;28;20381;-65
2022/01/09 09:14:00;;;;;;;;;;;;;;;6.37;72.62;99887.94;5081909;28;20299;-65
2022/01/09 09:16:25;;;;;;;;;;;;;;;6.43;73.00;99905.41;5080870;28;19920;-64
2022/01/09 09:18:52;;;;;;;;;;;;;;;6.46;72.93;99904.91;5085282;28;19920;-66
2022/01/09 09:21:17;;;;;;;;;;;;;;;6.49;73.19;99909.94;5084202;28;19924;-65
2022/01/09 09:23:42;;;;;;;;;;;;;;;6.50;72.44;99911.59;5086103;28;19935;-65
2022/01/09 09:26:08;;;;;;;;;;;;;;;6.53;72.89;99918.53;5079588;28;19975;-66
2022/01/09 09:28:33;;;;;;;;;;;;;;;6.51;73.42;99916.00;5080188;28;19921;-65
2022/01/09 09:30:58;;;;;;;;;;;;;;;6.52;73.27;99920.44;5081429;28;19946;-65
2022/01/09 09:33:24;;;;;;;;;;;;;;;6.53;72.06;99919.38;5079704;28;19920;-65
2022/01/09 09:35:49;;;;;;;;;;;;;;;6.51;72.37;99932.56;5088046;28;20279;-64
2022/01/09 09:38:14;;;;;;;;;;;;;;;6.50;73.08;99925.38;5093492;28;19973;-64
2022/01/09 09:40:39;;;;;;;;;;;;;;;6.53;73.03;99930.41;5079913;28;19920;-64
2022/01/09 09:43:04;;;;;;;;;;;;;;;6.57;73.43;99928.81;5085070;28;19935;-64
2022/01/09 09:45:30;;;;;;;;;;;;;;;6.63;73.42;99933.31;5083347;28;20315;-64
2022/01/09 09:47:55;;;;;;;;;;;;;;;6.69;72.74;99939.78;5079438;28;20004;-64
2022/01/09 09:50:21;;;;;;;;;;;;;;;6.71;73.05;99959.66;5085430;28;19920;-65
2022/01/09 09:52:48;;;;;;;;;;;;;;;6.70;72.00;99957.16;5086462;28;20466;-64
2022/01/09 09:55:14;;;;;;;;;;;;;;;6.63;71.90;99962.81;5084462;28;20296;-64
2022/01/09 09:57:39;;;;;;;;;;;;;;;6.58;72.40;99960.81;5094597;28;19926;-62
2022/01/09 10:00:15;;;;;;;;;;;;;;;6.59;72.56;99961.63;5094657;28;19931;-63
2022/01/09 10:02:43;;;;;;;;;;;;;;;6.60;72.15;99957.78;5080953;28;19924;-62
2022/01/09 10:05:09;;;;;;;;;;;;;;;6.61;73.03;99968.59;5080770;28;19924;-63
2022/01/09 10:07:34;;;;;;;;;;;;;;;6.62;72.35;99967.50;5094511;28;19923;-63
2022/01/09 10:10:02;;;;;;;;;;;;;;;6.63;72.80;99963.66;5077534;28;19969;-63
2022/01/09 10:12:29;;;;;;;;;;;;;;;6.63;72.84;99971.91;5080755;28;19924;-64
2022/01/09 10:14:59;;;;;;;;;;;;;;;6.63;72.76;99966.41;5088530;28;19917;-63
2022/01/09 10:17:25;;;;;;;;;;;;;;;6.67;72.40;99961.22;5084168;28;19928;-63
2022/01/09 10:19:53;;;;;;;;;;;;;;;6.72;72.81;99966.00;5079346;28;19935;-62
2022/01/09 10:22:21;;;;;;;;;;;;;;;6.74;72.58;99967.44;5065946;28;19942;-63
2022/01/09 10:24:46;;;;;;;;;;;;;;;6.75;73.52;99971.00;5079071;28;19931;-64
2022/01/09 10:27:25;;;;;;;;;;;;;;;6.76;73.14;99973.53;5079913;28;20007;-64
2022/01/09 10:29:50;;;;;;;;;;;;;;;6.74;72.44;99972.94;5073849;28;19924;-64
2022/01/09 10:32:15;;;;;;;;;;;;;;;6.76;72.79;99973.53;5089599;28;19927;-64
2022/01/09 10:34:41;;;;;;;;;;;;;;;6.77;72.88;99972.44;5087312;28;20290;-65
2022/01/09 10:37:16;;;;;;;;;;;;;;;6.74;72.92;99981.22;5084898;28;19920;-65
2022/01/09 10:39:43;;;;;;;;;;;;;;;6.73;73.10;99979.56;5083804;28;19924;-65
2022/01/09 10:42:12;;;;;;;;;;;;;;;6.75;72.43;99988.41;5074794;28;20035;-65
2022/01/09 10:44:39;;;;;;;;;;;;;;;6.77;73.28;99990.91;5083249;28;20627;-68
2022/01/09 10:47:14;;;;;;;;;;;;;;;6.83;73.17;99984.38;5070354;28;20009;-69
2022/01/09 10:49:41;;;;;;;;;;;;;;;6.93;73.18;99989.25;5073150;28;19920;-68
2022/01/09 10:52:13;;;;;;;;;;;;;;;6.98;72.90;99992.09;5093112;28;19936;-68
2022/01/09 10:54:40;;;;;;;;;;;;;;;7.00;73.15;99999.03;5078777;28;20236;-68
2022/01/09 10:57:26;;;;;;;;;;;;;;;7.03;72.82;99994.94;5081912;28;19920;-69
2022/01/09 10:59:51;;;;;;;;;;;;;;;7.05;72.50;99988.09;5086119;28;19928;-66
2022/01/09 11:02:17;;;;;;;;;;;;;;;7.08;72.55;99997.78;5087186;28;19923;-67
2022/01/09 11:04:43;;;;;;;;;;;;;;;7.12;72.36;100010.84;5081160;28;19920;-71
2022/01/09 11:07:09;;;;;;;;;;;;;;;7.18;72.32;100008.97;5079236;28;19931;-70
2022/01/09 11:09:36;;;;;;;;;;;;;;;7.23;72.71;100008.22;5078021;28;19959;-69
2022/01/09 11:12:03;;;;;;;;;;;;;;;7.28;72.38;100008.31;5081694;28;20471;-70
2022/01/09 11:14:34;;;;;;;;;;;;;;;7.34;71.90;100007.28;5078474;28;19928;-70
2022/01/09 11:17:02;;;;;;;;;;;;;;;7.34;72.84;100002.59;5079601;28;19954;-69
2022/01/09 11:19:27;;;;;;;;;;;;;;;7.35;72.76;100014.50;5078400;28;20663;-68
2022/01/09 11:22:01;;;;;;;;;;;;;;;7.35;71.96;100015.34;5086750;28;19920;-69
2022/01/09 11:24:45;;;;;;;;;;;;;;;7.42;72.83;100017.91;5079084;28;19939;-63
2022/01/09 11:27:16;;;;;;;;;;;;;;;7.49;72.39;100014.97;5076330;28;19926;-66
2022/01/09 11:30:00;;;;;;;;;;;;;;;7.52;71.81;100029.13;5090154;28;19935;-64
2022/01/09 11:32:40;;;;;;;;;;;;;;;7.52;72.11;100031.03;5089255;28;19958;-65
2022/01/09 11:35:12;;;;;;;;;;;;;;;7.49;71.29;100035.13;5086516;28;19920;-66
2022/01/09 11:38:01;;;;;;;;;;;;;;;7.54;72.86;100026.91;5087475;28;20398;-66
2022/01/09 11:40:29;;;;;;;;;;;;;;;7.57;70.93;100031.13;5088316;28;19928;-65
2022/01/09 11:43:08;;;;;;;;;;;;;;;7.57;71.59;100034.72;5086468;28;19920;-66
2022/01/09 11:45:42;;;;;;;;;;;;;;;7.65;72.69;100029.84;5076872;28;20019;-70
2022/01/09 11:48:07;;;;;;;;;;;;;;;7.68;72.28;100035.69;5086136;28;19954;-70
2022/01/09 11:50:33;;;;;;;;;;;;;;;7.70;71.62;100039.03;5084966;28;19928;-68
2022/01/09 11:52:59;;;;;;;;;;;;;;;7.73;72.23;100043.22;5093628;28;20385;-71
2022/01/09 11:55:41;;;;;;;;;;;;;;;7.76;71.64;100038.03;5082304;28;19928;-70
2022/01/09 11:58:09;;;;;;;;;;;;;;;7.79;71.98;100044.97;5085798;28;19928;-70
2022/01/09 12:00:36;;;;;;;;;;;;;;;7.82;71.25;100047.22;5083433;28;19920;-70
2022/01/09 12:03:21;;;;;;;;;;;;;;;7.84;71.45;100050.56;5082956;28;20182;-71
2022/01/09 12:06:08;;;;;;;;;;;;;;;7.82;70.99;100048.06;5085405;28;19920;-72
2022/01/09 12:08:52;;;;;;;;;;;;;;;7.85;71.36;100044.78;5083393;28;19920;-72
2022/01/09 12:11:17;;;;;;;;;;;;;;;7.87;71.18;100047.31;5086794;28;20003;-71
2022/01/09 12:13:42;;;;;;;;;;;;;;;7.88;71.53;100051.72;5087433;28;20047;-73
2022/01/09 12:16:08;;;;;;;;;;;;;;;7.87;71.74;100055.59;5087706;28;19928;-71
2022/01/09 12:18:44;;;;;;;;;;;;;;;7.86;71.25;100049.22;5085955;28;20380;-71
2022/01/09 12:21:10;;;;;;;;;;;;;;;7.85;71.19;100057.75;5084736;28;19935;-70
2022/01/09 12:23:35;;;;;;;;;;;;;;;7.82;71.06;100055.50;5082548;28;20349;-66
2022/01/09 12:26:01;;;;;;;;;;;;;;;7.77;71.71;100061.78;5089614;28;19985;-66
2022/01/09 12:28:38;;;;;;;;;;;;;;;7.76;71.10;100075.88;5086559;28;20327;-70
2022/01/09 12:31:03;;;;;;;;;;;;;;;7.74;69.89;100084.41;5080835;28;19928;-66
2022/01/09 12:33:28;;;;;;;;;;;;;;;7.72;71.22;100077.47;5094863;28;20315;-66
2022/01/09 12:35:57;;;;;;;;;;;;;;;7.70;71.16;100083.22;5091219;28;19921;-66
2022/01/09 12:38:24;;;;;;;;;;;;;;;7.68;71.29;100079.91;5093377;28;20018;-66
2022/01/09 12:40:57;;;;;;;;;;;;;;;7.66;70.89;100092.28;5082358;28;20050;-65
2022/01/09 12:43:23;;;;;;;;;;;;;;;7.65;70.15;100090.59;5094494;28;20008;-66
2022/01/09 12:45:49;;;;;;;;;;;;;;;7.62;70.81;100090.03;5080602;28;19990;-67
2022/01/09 12:48:22;;;;;;;;;;;;;;;7.58;71.02;100086.13;5076879;28;19928;-67
2022/01/09 12:50:48;;;;;;;;;;;;;;;7.57;71.02;100091.88;5079995;28;19955;-66
2022/01/09 12:53:28;;;;;;;;;;;;;;;7.56;70.84;100096.56;5091177;28;20020;-67